Time;durP1;ratioP1;P1;durP2;ratioP2;P2;SDS_P1;SDS_P2;PMS_P1;PMS_P2;Temp;Humidity;BMP_temperature;BMP_pressure;BME280_temperature;BME280_humidity;BME280_pressure;Samples;Min_cycle;Max_cycle;Signal;HPM_P1;HPM_P2
2023/08/29 00:00:34;;;;;;;6.63;2.92;;;;;;;;;;5060818;28;20123;-67
2023/08/29 00:03:03;;;;;;;6.03;2.58;;;;;;;;;;5062948;28;20403;-68
2023/08/29 00:05:29;;;;;;;7.03;2.50;;;;;;;;;;5062076;28;20051;-68
2023/08/29 00:07:55;;;;;;;5.55;2.60;;;;;;;;;;5061400;28;21724;-67
2023/08/29 00:10:21;;;;;;;3.65;2.17;;;;;;;;;;5061326;28;20021;-67
2023/08/29 00:12:47;;;;;;;8.20;3.08;;;;;;;;;;5061467;28;20497;-67
2023/08/29 00:15:13;;;;;;;5.57;2.65;;;;;;;;;;5062845;28;20028;-67
2023/08/29 00:17:40;;;;;;;7.43;2.97;;;;;;;;;;5062140;28;20131;-67
2023/08/29 00:20:06;;;;;;;5.15;2.75;;;;;;;;;;5061722;28;20032;-67
2023/08/29 00:22:32;;;;;;;9.63;2.80;;;;;;;;;;5061139;28;20363;-67
2023/08/29 00:24:58;;;;;;;5.00;2.90;;;;;;;;;;5063139;28;20032;-67
2023/08/29 00:27:24;;;;;;;5.55;3.00;;;;;;;;;;5061908;28;20127;-67
2023/08/29 00:29:51;;;;;;;6.53;2.72;;;;;;;;;;5062985;28;20047;-67
2023/08/29 00:32:17;;;;;;;5.47;3.10;;;;;;;;;;5061266;28;20031;-67
2023/08/29 00:34:43;;;;;;;5.82;2.70;;;;;;;;;;5062767;28;20110;-67
2023/08/29 00:37:09;;;;;;;5.15;2.92;;;;;;;;;;5062121;28;20029;-67
2023/08/29 00:39:35;;;;;;;6.53;3.10;;;;;;;;;;5060434;28;20788;-67
2023/08/29 00:42:01;;;;;;;6.15;3.40;;;;;;;;;;5059056;28;20036;-68
2023/08/29 00:44:27;;;;;;;8.30;3.28;;;;;;;;;;5060736;28;20461;-67
2023/08/29 00:46:54;;;;;;;5.00;2.83;;;;;;;;;;5060168;28;20052;-67
2023/08/29 00:49:22;;;;;;;9.48;3.17;;;;;;;;;;5060741;28;20086;-68
2023/08/29 00:51:49;;;;;;;6.22;3.10;;;;;;;;;;5060401;28;20035;-68
2023/08/29 00:54:16;;;;;;;6.53;3.28;;;;;;;;;;5062174;28;20028;-68
2023/08/29 00:56:43;;;;;;;5.43;2.67;;;;;;;;;;5062674;28;20028;-67
2023/08/29 00:59:09;;;;;;;5.40;2.63;;;;;;;;;;5060526;28;20032;-67
2023/08/29 01:01:36;;;;;;;5.05;3.10;;;;;;;;;;5061566;28;20111;-68
2023/08/29 01:04:02;;;;;;;10.20;3.00;;;;;;;;;;5061461;28;20037;-67
2023/08/29 01:06:30;;;;;;;5.35;3.05;;;;;;;;;;5062166;28;20048;-67
2023/08/29 01:08:57;;;;;;;6.05;2.80;;;;;;;;;;5060637;28;20028;-68
2023/08/29 01:11:27;;;;;;;9.07;3.17;;;;;;;;;;5061934;28;20492;-67
2023/08/29 01:13:58;;;;;;;6.03;2.97;;;;;;;;;;5062163;28;21359;-68
2023/08/29 01:16:28;;;;;;;5.60;2.67;;;;;;;;;;5059752;28;20035;-68
2023/08/29 01:18:55;;;;;;;5.57;2.95;;;;;;;;;;5060683;28;20035;-68
2023/08/29 01:21:32;;;;;;;6.50;3.13;;;;;;;;;;5061069;28;20040;-68
2023/08/29 01:24:03;;;;;;;7.32;3.13;;;;;;;;;;5062204;28;20436;-68
2023/08/29 01:26:32;;;;;;;7.82;3.50;;;;;;;;;;5063070;28;20036;-67
2023/08/29 01:28:58;;;;;;;5.05;2.83;;;;;;;;;;5061915;28;20020;-68
2023/08/29 01:31:29;;;;;;;7.25;2.85;;;;;;;;;;5065672;28;20059;-67
2023/08/29 01:33:56;;;;;;;6.30;2.97;;;;;;;;;;5063815;28;20036;-67
2023/08/29 01:36:22;;;;;;;7.25;3.38;;;;;;;;;;5066052;28;20036;-67
2023/08/29 01:38:48;;;;;;;7.97;3.20;;;;;;;;;;5065004;28;20032;-68
2023/08/29 01:41:14;;;;;;;6.03;3.17;;;;;;;;;;5066080;28;20403;-67
2023/08/29 01:43:40;;;;;;;8.43;2.95;;;;;;;;;;5065443;28;21327;-68
2023/08/29 01:46:06;;;;;;;4.72;2.35;;;;;;;;;;5065822;28;20691;-68
2023/08/29 01:48:32;;;;;;;5.78;2.83;;;;;;;;;;5064149;28;20982;-68
2023/08/29 01:50:58;;;;;;;4.82;2.60;;;;;;;;;;5064515;28;20131;-68
2023/08/29 01:53:25;;;;;;;7.13;2.88;;;;;;;;;;5065047;28;20028;-68
2023/08/29 01:55:51;;;;;;;6.00;2.55;;;;;;;;;;5066564;28;20099;-68
2023/08/29 01:58:17;;;;;;;5.35;2.08;;;;;;;;;;5064587;28;20032;-67
2023/08/29 02:00:44;;;;;;;4.05;1.70;;;;;;;;;;5066092;28;20020;-67
2023/08/29 02:03:10;;;;;;;4.18;2.42;;;;;;;;;;5064261;28;20039;-67
2023/08/29 02:05:36;;;;;;;3.35;2.00;;;;;;;;;;5065423;28;20048;-67
2023/08/29 02:08:02;;;;;;;7.18;2.90;;;;;;;;;;5064561;28;20047;-68
2023/08/29 02:10:29;;;;;;;5.47;2.83;;;;;;;;;;5063858;28;20032;-67
2023/08/29 02:12:55;;;;;;;4.93;3.13;;;;;;;;;;5064914;28;20739;-67
2023/08/29 02:15:21;;;;;;;4.78;2.88;;;;;;;;;;5065784;28;20086;-67
2023/08/29 02:17:47;;;;;;;4.25;2.60;;;;;;;;;;5065267;28;20043;-67
2023/08/29 02:20:13;;;;;;;5.53;2.83;;;;;;;;;;5063525;28;20024;-67
2023/08/29 02:22:39;;;;;;;5.30;3.05;;;;;;;;;;5064807;28;20093;-68
2023/08/29 02:25:05;;;;;;;6.68;2.75;;;;;;;;;;5064873;28;20028;-67
2023/08/29 02:27:32;;;;;;;5.50;2.88;;;;;;;;;;5061889;28;20089;-67
2023/08/29 02:29:58;;;;;;;6.35;2.65;;;;;;;;;;5064643;28;20032;-67
2023/08/29 02:32:24;;;;;;;5.82;2.47;;;;;;;;;;5064171;28;20028;-67
2023/08/29 02:34:50;;;;;;;5.32;2.40;;;;;;;;;;5064642;28;20028;-67
2023/08/29 02:37:16;;;;;;;6.07;2.83;;;;;;;;;;5062799;28;20035;-67
2023/08/29 02:39:42;;;;;;;4.63;2.50;;;;;;;;;;5063937;28;20028;-68
2023/08/29 02:42:09;;;;;;;7.47;2.58;;;;;;;;;;5063221;28;20028;-67
2023/08/29 02:44:35;;;;;;;3.60;2.10;;;;;;;;;;5062250;28;20672;-68
2023/08/29 02:47:01;;;;;;;5.93;1.88;;;;;;;;;;5063198;28;20036;-68
2023/08/29 02:49:27;;;;;;;5.15;2.00;;;;;;;;;;5060768;28;20036;-67
2023/08/29 02:51:53;;;;;;;4.60;2.72;;;;;;;;;;5062902;28;20754;-68
2023/08/29 02:54:19;;;;;;;4.15;2.15;;;;;;;;;;5061761;28;20479;-67
2023/08/29 02:56:45;;;;;;;3.17;1.52;;;;;;;;;;5063340;28;20032;-67
2023/08/29 02:59:11;;;;;;;4.05;1.52;;;;;;;;;;5064320;28;20040;-67
2023/08/29 03:01:37;;;;;;;3.75;2.03;;;;;;;;;;5064186;28;20118;-67
2023/08/29 03:04:03;;;;;;;3.85;2.00;;;;;;;;;;5063855;28;20059;-68
2023/08/29 03:06:29;;;;;;;3.40;1.90;;;;;;;;;;5063746;28;20047;-67
2023/08/29 03:08:55;;;;;;;4.00;2.30;;;;;;;;;;5063661;28;20035;-67
2023/08/29 03:11:21;;;;;;;5.32;2.85;;;;;;;;;;5064614;28;21253;-67
2023/08/29 03:13:47;;;;;;;6.25;2.17;;;;;;;;;;5063371;28;20028;-68
2023/08/29 03:16:14;;;;;;;4.03;1.92;;;;;;;;;;5064772;28;20096;-67
2023/08/29 03:18:40;;;;;;;2.80;0.82;;;;;;;;;;5063724;28;20027;-67
2023/08/29 03:21:09;;;;;;;10.40;1.00;;;;;;;;;;5064333;28;20030;-67
2023/08/29 03:23:38;;;;;;;2.00;1.00;;;;;;;;;;5064183;28;20032;-67
2023/08/29 03:26:05;;;;;;;3.63;1.30;;;;;;;;;;5061970;28;20031;-67
2023/08/29 03:28:32;;;;;;;4.88;0.98;;;;;;;;;;5063899;28;20038;-68
2023/08/29 03:31:06;;;;;;;2.67;0.98;;;;;;;;;;5063238;28;20418;-67
2023/08/29 03:33:32;;;;;;;1.63;0.82;;;;;;;;;;5063928;28;20091;-68
2023/08/29 03:35:59;;;;;;;3.92;1.00;;;;;;;;;;5064053;28;20071;-67
2023/08/29 03:38:25;;;;;;;3.00;0.85;;;;;;;;;;5061548;28;20764;-67
2023/08/29 03:40:58;;;;;;;2.47;0.95;;;;;;;;;;5063563;28;21355;-67
2023/08/29 03:43:30;;;;;;;2.97;0.93;;;;;;;;;;5063324;28;20757;-67
2023/08/29 03:46:06;;;;;;;1.25;0.75;;;;;;;;;;5062732;28;20554;-67
2023/08/29 03:48:33;;;;;;;1.83;0.80;;;;;;;;;;5064045;28;20040;-67
2023/08/29 03:51:02;;;;;;;3.22;1.10;;;;;;;;;;5063959;28;20032;-67
2023/08/29 03:53:28;;;;;;;2.35;1.25;;;;;;;;;;5060909;28;20734;-67
2023/08/29 03:55:54;;;;;;;1.90;0.95;;;;;;;;;;5062633;28;21136;-67
2023/08/29 03:58:20;;;;;;;2.58;1.13;;;;;;;;;;5062645;28;20490;-67
2023/08/29 04:00:46;;;;;;;4.28;1.75;;;;;;;;;;5062591;28;20078;-67
2023/08/29 04:03:12;;;;;;;3.67;2.00;;;;;;;;;;5062841;28;20047;-67
2023/08/29 04:05:38;;;;;;;3.55;1.83;;;;;;;;;;5062841;28;20040;-67
2023/08/29 04:08:06;;;;;;;3.67;1.80;;;;;;;;;;5063593;28;20029;-67
2023/08/29 04:10:41;;;;;;;3.35;1.50;;;;;;;;;;5061672;28;20031;-67
2023/08/29 04:13:07;;;;;;;2.92;1.45;;;;;;;;;;5061827;28;20051;-67
2023/08/29 04:15:34;;;;;;;4.80;1.50;;;;;;;;;;5063296;28;20421;-67
2023/08/29 04:18:00;;;;;;;4.05;1.70;;;;;;;;;;5062852;28;20031;-67
2023/08/29 04:20:27;;;;;;;5.45;2.00;;;;;;;;;;5062867;28;20020;-67
2023/08/29 04:22:53;;;;;;;4.13;2.28;;;;;;;;;;5062726;28;20036;-67
2023/08/29 04:25:19;;;;;;;4.95;2.15;;;;;;;;;;5062507;28;20032;-67
2023/08/29 04:27:46;;;;;;;3.10;1.80;;;;;;;;;;5062598;28;20068;-67
2023/08/29 04:30:12;;;;;;;4.00;2.00;;;;;;;;;;5061645;28;20059;-67
2023/08/29 04:32:38;;;;;;;1.77;0.60;;;;;;;;;;5062588;28;20485;-67
2023/08/29 04:35:06;;;;;;;3.63;2.05;;;;;;;;;;5062403;28;20039;-67
2023/08/29 04:37:32;;;;;;;4.20;2.42;;;;;;;;;;5061633;28;20070;-67
2023/08/29 04:39:58;;;;;;;5.43;2.47;;;;;;;;;;5062734;28;20610;-67
2023/08/29 04:42:24;;;;;;;5.47;3.03;;;;;;;;;;5062857;28;21901;-67
2023/08/29 04:44:53;;;;;;;6.88;2.65;;;;;;;;;;5062006;28;20040;-67
2023/08/29 04:47:19;;;;;;;4.25;2.50;;;;;;;;;;5061754;28;20032;-67
2023/08/29 04:49:45;;;;;;;4.70;2.63;;;;;;;;;;5060796;28;20119;-67
2023/08/29 04:52:11;;;;;;;4.30;2.33;;;;;;;;;;5058608;28;20415;-67
2023/08/29 04:54:37;;;;;;;4.82;2.30;;;;;;;;;;5062158;28;20654;-67
2023/08/29 04:57:04;;;;;;;4.03;2.22;;;;;;;;;;5060111;28;20028;-67
2023/08/29 04:59:30;;;;;;;4.70;2.17;;;;;;;;;;5061545;28;20032;-67
2023/08/29 05:01:56;;;;;;;4.88;2.00;;;;;;;;;;5059700;28;20024;-67
2023/08/29 05:04:22;;;;;;;4.75;1.85;;;;;;;;;;5061881;28;20035;-67
2023/08/29 05:06:49;;;;;;;3.53;1.98;;;;;;;;;;5061547;28;20038;-67
2023/08/29 05:09:15;;;;;;;3.33;1.65;;;;;;;;;;5062899;28;20043;-66
2023/08/29 05:11:41;;;;;;;6.68;1.00;;;;;;;;;;5062477;28;20032;-67
2023/08/29 05:14:07;;;;;;;2.97;1.38;;;;;;;;;;5060307;28;20032;-67
2023/08/29 05:16:33;;;;;;;1.77;0.90;;;;;;;;;;5060305;28;21511;-67
2023/08/29 05:19:04;;;;;;;2.33;1.10;;;;;;;;;;5061437;28;20043;-67
2023/08/29 05:21:30;;;;;;;2.38;1.17;;;;;;;;;;5060240;28;20028;-67
2023/08/29 05:23:57;;;;;;;2.33;1.17;;;;;;;;;;5061940;28;20036;-67
2023/08/29 05:26:24;;;;;;;2.72;1.25;;;;;;;;;;5060812;28;20032;-67
2023/08/29 05:28:50;;;;;;;4.38;1.52;;;;;;;;;;5060502;28;20044;-67
2023/08/29 05:31:16;;;;;;;18.42;2.10;;;;;;;;;;5060540;28;20032;-67
2023/08/29 05:33:42;;;;;;;5.75;1.52;;;;;;;;;;5055453;28;20036;-67
2023/08/29 05:36:08;;;;;;;4.82;1.92;;;;;;;;;;5060706;28;20111;-67
2023/08/29 05:38:34;;;;;;;3.42;1.73;;;;;;;;;;5057508;28;20029;-67
2023/08/29 05:41:00;;;;;;;3.13;1.58;;;;;;;;;;5058368;28;20039;-67
2023/08/29 05:43:27;;;;;;;3.80;1.70;;;;;;;;;;5060462;28;20234;-67
2023/08/29 05:45:56;;;;;;;4.32;1.60;;;;;;;;;;5061513;28;20032;-67
2023/08/29 05:48:22;;;;;;;4.65;2.08;;;;;;;;;;5061641;28;20783;-67
2023/08/29 05:50:49;;;;;;;3.53;2.00;;;;;;;;;;5061331;28;21088;-67
2023/08/29 05:53:15;;;;;;;6.75;2.10;;;;;;;;;;5059693;28;20080;-67
2023/08/29 05:55:42;;;;;;;5.43;2.15;;;;;;;;;;5060185;28;20131;-67
2023/08/29 05:58:08;;;;;;;4.13;2.08;;;;;;;;;;5061647;28;20360;-67
2023/08/29 06:00:35;;;;;;;3.10;1.70;;;;;;;;;;5061898;28;20063;-67
2023/08/29 06:03:05;;;;;;;5.13;2.30;;;;;;;;;;5060723;28;20035;-67
2023/08/29 06:05:32;;;;;;;3.53;1.92;;;;;;;;;;5061166;28;20048;-68
2023/08/29 06:07:58;;;;;;;3.28;1.95;;;;;;;;;;5060624;28;20032;-67
2023/08/29 06:10:24;;;;;;;5.18;2.10;;;;;;;;;;5061858;28;20039;-67
2023/08/29 06:12:50;;;;;;;5.93;2.53;;;;;;;;;;5062252;28;20764;-67
2023/08/29 06:15:16;;;;;;;4.63;2.53;;;;;;;;;;5060903;28;20030;-67
2023/08/29 06:17:42;;;;;;;4.00;2.38;;;;;;;;;;5065325;28;20028;-68
2023/08/29 06:20:11;;;;;;;4.35;2.10;;;;;;;;;;5063355;28;20036;-67
2023/08/29 06:22:37;;;;;;;6.03;2.50;;;;;;;;;;5065765;28;20171;-68
2023/08/29 06:25:04;;;;;;;3.92;2.20;;;;;;;;;;5062668;28;20134;-67
2023/08/29 06:27:30;;;;;;;5.30;2.47;;;;;;;;;;5064825;28;20154;-67
2023/08/29 06:29:56;;;;;;;4.78;2.15;;;;;;;;;;5064814;28;20066;-67
2023/08/29 06:32:23;;;;;;;5.57;2.17;;;;;;;;;;5065055;28;20498;-67
2023/08/29 06:34:49;;;;;;;4.95;2.00;;;;;;;;;;5065083;28;20512;-67
2023/08/29 06:37:16;;;;;;;6.47;2.55;;;;;;;;;;5064227;28;20036;-67
2023/08/29 06:39:45;;;;;;;6.15;2.10;;;;;;;;;;5064908;28;20078;-67
2023/08/29 06:42:11;;;;;;;6.30;2.22;;;;;;;;;;5064396;28;20841;-67
2023/08/29 06:44:37;;;;;;;6.03;2.33;;;;;;;;;;5064877;28;20059;-67
2023/08/29 06:47:03;;;;;;;3.70;1.88;;;;;;;;;;5064624;28;20028;-68
2023/08/29 06:49:29;;;;;;;4.72;2.00;;;;;;;;;;5063657;28;20037;-67
2023/08/29 06:51:55;;;;;;;11.15;3.15;;;;;;;;;;5061566;28;20578;-67
2023/08/29 06:54:21;;;;;;;3.10;1.83;;;;;;;;;;5061050;28;20020;-67
2023/08/29 06:56:49;;;;;;;5.45;2.40;;;;;;;;;;5063082;28;20035;-67
2023/08/29 06:59:15;;;;;;;5.20;1.98;;;;;;;;;;5063746;28;20031;-67
2023/08/29 07:01:41;;;;;;;6.05;2.30;;;;;;;;;;5063335;28;20040;-68
2023/08/29 07:04:09;;;;;;;5.07;2.30;;;;;;;;;;5062677;28;20044;-67
2023/08/29 07:06:35;;;;;;;7.60;1.85;;;;;;;;;;5064368;28;20040;-67
2023/08/29 07:09:01;;;;;;;4.97;2.28;;;;;;;;;;5063643;28;20038;-67
2023/08/29 07:11:27;;;;;;;4.85;2.10;;;;;;;;;;5064613;28;20046;-67
2023/08/29 07:13:53;;;;;;;3.65;1.92;;;;;;;;;;5062385;28;20040;-67
2023/08/29 07:16:19;;;;;;;7.07;2.05;;;;;;;;;;5063827;28;20028;-67
2023/08/29 07:18:46;;;;;;;3.85;1.75;;;;;;;;;;5064104;28;20176;-67
2023/08/29 07:21:12;;;;;;;3.67;2.13;;;;;;;;;;5064351;28;20840;-67
2023/08/29 07:23:38;;;;;;;6.53;2.03;;;;;;;;;;5063922;28;20154;-68
2023/08/29 07:26:04;;;;;;;3.80;2.03;;;;;;;;;;5063846;28;20044;-68
2023/08/29 07:28:30;;;;;;;4.00;1.50;;;;;;;;;;5062900;28;20746;-67
2023/08/29 07:30:57;;;;;;;3.05;1.60;;;;;;;;;;5063633;28;20709;-67
2023/08/29 07:33:24;;;;;;;3.25;1.48;;;;;;;;;;5063529;28;20969;-67
2023/08/29 07:35:50;;;;;;;3.75;1.17;;;;;;;;;;5063772;28;20440;-67
2023/08/29 07:38:17;;;;;;;3.38;1.45;;;;;;;;;;5063970;28;20039;-68
2023/08/29 07:40:49;;;;;;;3.72;1.23;;;;;;;;;;5063767;28;20724;-67
2023/08/29 07:43:15;;;;;;;4.40;1.80;;;;;;;;;;5062710;28;20043;-67
2023/08/29 07:45:42;;;;;;;2.63;1.38;;;;;;;;;;5060759;28;20029;-67
2023/08/29 07:48:08;;;;;;;3.58;1.35;;;;;;;;;;5063892;28;20028;-67
2023/08/29 07:50:35;;;;;;;3.92;1.40;;;;;;;;;;5063660;28;20136;-67
2023/08/29 07:53:01;;;;;;;3.63;1.70;;;;;;;;;;5061615;28;20036;-67
2023/08/29 07:55:27;;;;;;;4.43;1.55;;;;;;;;;;5062879;28;20032;-67
2023/08/29 07:57:53;;;;;;;3.33;1.58;;;;;;;;;;5063216;28;20035;-68
2023/08/29 08:00:19;;;;;;;3.88;1.55;;;;;;;;;;5061630;28;20028;-68
2023/08/29 08:02:45;;;;;;;3.60;1.83;;;;;;;;;;5062117;28;20044;-68
2023/08/29 08:05:13;;;;;;;3.15;1.52;;;;;;;;;;5061793;28;20051;-67
2023/08/29 08:07:40;;;;;;;4.35;1.77;;;;;;;;;;5063229;28;20127;-68
2023/08/29 08:10:07;;;;;;;3.25;1.63;;;;;;;;;;5062967;28;20036;-68
2023/08/29 08:12:34;;;;;;;4.13;1.60;;;;;;;;;;5061502;28;20075;-68
2023/08/29 08:15:00;;;;;;;4.40;1.90;;;;;;;;;;5059003;28;20071;-68
2023/08/29 08:17:26;;;;;;;3.50;2.08;;;;;;;;;;5048904;28;20130;-68
2023/08/29 08:19:52;;;;;;;4.63;1.92;;;;;;;;;;5050514;28;20090;-68
2023/08/29 08:22:18;;;;;;;5.88;2.17;;;;;;;;;;5053853;28;20028;-67
2023/08/29 08:24:44;;;;;;;3.72;1.65;;;;;;;;;;5050938;28;20035;-68
2023/08/29 08:27:10;;;;;;;2.40;1.13;;;;;;;;;;5053045;28;20039;-68
2023/08/29 08:29:36;;;;;;;4.00;1.42;;;;;;;;;;5053184;28;20028;-68
2023/08/29 08:32:03;;;;;;;3.40;1.50;;;;;;;;;;5053705;28;20032;-68
2023/08/29 08:34:29;;;;;;;3.20;1.60;;;;;;;;;;5050799;28;20071;-68
2023/08/29 08:36:55;;;;;;;2.53;1.10;;;;;;;;;;5047862;28;20028;-68
2023/08/29 08:39:22;;;;;;;3.45;1.65;;;;;;;;;;5049245;28;20505;-68
2023/08/29 08:41:48;;;;;;;4.18;1.35;;;;;;;;;;5051994;28;20074;-68
2023/08/29 08:44:17;;;;;;;3.75;1.45;;;;;;;;;;5052643;28;20123;-68
2023/08/29 08:46:47;;;;;;;3.78;1.85;;;;;;;;;;5050321;28;20622;-68
2023/08/29 08:49:13;;;;;;;3.03;1.42;;;;;;;;;;5050599;28;20031;-68
2023/08/29 08:51:40;;;;;;;5.45;1.45;;;;;;;;;;5050834;28;20032;-68
2023/08/29 08:54:07;;;;;;;5.57;1.80;;;;;;;;;;5051950;28;20031;-68
2023/08/29 08:56:34;;;;;;;2.55;1.48;;;;;;;;;;5053112;28;20029;-67
2023/08/29 08:59:00;;;;;;;4.93;2.10;;;;;;;;;;5051653;28;20114;-68
2023/08/29 09:01:26;;;;;;;6.53;2.47;;;;;;;;;;5049306;28;21253;-68
2023/08/29 09:03:55;;;;;;;4.50;1.70;;;;;;;;;;5051034;28;20043;-68
2023/08/29 09:06:21;;;;;;;3.65;1.60;;;;;;;;;;5050139;28;20075;-68
2023/08/29 09:08:47;;;;;;;3.72;2.10;;;;;;;;;;5050990;28;20040;-68
2023/08/29 09:11:18;;;;;;;6.53;2.40;;;;;;;;;;5051965;28;20047;-68
2023/08/29 09:13:47;;;;;;;4.82;2.60;;;;;;;;;;5053008;28;21834;-68
2023/08/29 09:16:14;;;;;;;7.05;2.58;;;;;;;;;;5051960;28;20039;-68
2023/08/29 09:18:42;;;;;;;4.13;1.73;;;;;;;;;;5052115;28;20758;-68
2023/08/29 09:21:15;;;;;;;4.10;1.98;;;;;;;;;;5052902;28;20074;-68
2023/08/29 09:23:42;;;;;;;5.28;2.15;;;;;;;;;;5051390;28;20553;-68
2023/08/29 09:26:10;;;;;;;5.45;2.13;;;;;;;;;;5049504;28;20044;-68
2023/08/29 09:28:38;;;;;;;4.13;2.15;;;;;;;;;;5053375;28;20151;-68
2023/08/29 09:31:08;;;;;;;5.95;1.70;;;;;;;;;;5053822;28;20044;-68
2023/08/29 09:33:34;;;;;;;4.53;1.95;;;;;;;;;;5051093;28;20036;-68
2023/08/29 09:36:01;;;;;;;3.13;1.40;;;;;;;;;;5051016;28;20050;-68
2023/08/29 09:38:32;;;;;;;2.47;1.55;;;;;;;;;;5053642;28;20020;-68
2023/08/29 09:41:00;;;;;;;2.80;1.48;;;;;;;;;;5052881;28;20024;-68
2023/08/29 09:43:30;;;;;;;2.58;1.40;;;;;;;;;;5054041;28;20123;-68
2023/08/29 09:45:56;;;;;;;4.43;1.70;;;;;;;;;;5050404;28;20608;-68
2023/08/29 09:48:23;;;;;;;3.03;1.95;;;;;;;;;;5050301;28;20028;-68
2023/08/29 09:50:49;;;;;;;2.95;1.63;;;;;;;;;;5054769;28;20482;-68
2023/08/29 09:53:16;;;;;;;4.28;1.50;;;;;;;;;;5056504;28;21360;-68
2023/08/29 09:55:45;;;;;;;3.85;1.50;;;;;;;;;;5056699;28;20128;-68
2023/08/29 09:58:11;;;;;;;2.38;1.20;;;;;;;;;;5056586;28;20110;-68
2023/08/29 10:00:41;;;;;;;5.32;1.70;;;;;;;;;;5057102;28;20026;-68
2023/08/29 10:03:08;;;;;;;3.65;1.67;;;;;;;;;;5056335;28;20073;-68
2023/08/29 10:05:35;;;;;;;3.03;1.55;;;;;;;;;;5056369;28;20036;-68
2023/08/29 10:08:05;;;;;;;3.17;1.48;;;;;;;;;;5055757;28;20180;-67
2023/08/29 10:10:34;;;;;;;3.35;1.50;;;;;;;;;;5056383;28;20431;-68
2023/08/29 10:13:02;;;;;;;3.63;1.70;;;;;;;;;;5055749;28;20024;-68
2023/08/29 10:15:28;;;;;;;4.78;1.42;;;;;;;;;;5055295;28;20036;-68
2023/08/29 10:17:55;;;;;;;3.10;1.15;;;;;;;;;;5055442;28;20020;-68
2023/08/29 10:20:22;;;;;;;2.97;1.80;;;;;;;;;;5056060;28;20036;-68
2023/08/29 10:22:48;;;;;;;5.35;2.78;;;;;;;;;;5053706;28;21016;-68
2023/08/29 10:25:15;;;;;;;3.22;2.13;;;;;;;;;;5053433;28;21957;-68
2023/08/29 10:27:42;;;;;;;6.05;2.55;;;;;;;;;;5056039;28;20035;-68
2023/08/29 10:30:08;;;;;;;4.80;2.83;;;;;;;;;;5056466;28;20589;-67
2023/08/29 10:32:35;;;;;;;4.97;2.90;;;;;;;;;;5055354;28;20040;-68
2023/08/29 10:35:03;;;;;;;4.55;2.67;;;;;;;;;;5054522;28;20081;-68
2023/08/29 10:37:29;;;;;;;5.72;2.60;;;;;;;;;;5052728;28;20147;-68
2023/08/29 10:40:08;;;;;;;4.68;2.35;;;;;;;;;;5054173;28;20062;-68
2023/08/29 10:42:48;;;;;;;3.33;2.20;;;;;;;;;;5054229;28;20028;-68
2023/08/29 10:45:14;;;;;;;4.65;2.10;;;;;;;;;;5054585;28;20032;-68
2023/08/29 10:47:46;;;;;;;4.05;1.80;;;;;;;;;;5055559;28;20041;-68
2023/08/29 10:50:18;;;;;;;3.58;1.90;;;;;;;;;;5055435;28;20028;-68
2023/08/29 10:52:46;;;;;;;3.00;1.70;;;;;;;;;;5052903;28;20154;-68
2023/08/29 10:55:21;;;;;;;3.63;1.80;;;;;;;;;;5056482;28;21891;-68
2023/08/29 10:57:47;;;;;;;4.07;2.17;;;;;;;;;;5055743;28;20032;-64
2023/08/29 11:00:18;;;;;;;3.42;2.00;;;;;;;;;;5054518;28;20035;-63
2023/08/29 11:02:44;;;;;;;3.55;1.90;;;;;;;;;;5052482;28;20032;-63
2023/08/29 11:05:11;;;;;;;2.97;1.40;;;;;;;;;;5050673;28;20063;-64
2023/08/29 11:07:38;;;;;;;4.57;1.67;;;;;;;;;;5052365;28;20138;-64
2023/08/29 11:10:15;;;;;;;3.13;1.70;;;;;;;;;;5053822;28;20378;-63
2023/08/29 11:13:00;;;;;;;4.55;1.90;;;;;;;;;;5052742;28;20040;-63
2023/08/29 11:15:45;;;;;;;2.85;1.60;;;;;;;;;;5051265;28;20024;-63
2023/08/29 11:18:22;;;;;;;6.38;2.20;;;;;;;;;;5053541;28;20058;-63
2023/08/29 11:20:49;;;;;;;5.07;1.92;;;;;;;;;;5053884;28;20613;-63
2023/08/29 11:23:15;;;;;;;3.95;2.20;;;;;;;;;;5053887;28;20112;-63
2023/08/29 11:25:42;;;;;;;3.42;1.55;;;;;;;;;;5054745;28;20584;-63
2023/08/29 11:28:08;;;;;;;5.10;1.70;;;;;;;;;;5053975;28;20122;-63
2023/08/29 11:30:34;;;;;;;5.18;1.70;;;;;;;;;;5055073;28;20167;-63
2023/08/29 11:33:03;;;;;;;2.97;1.48;;;;;;;;;;5054057;28;20047;-63
2023/08/29 11:35:29;;;;;;;4.68;1.55;;;;;;;;;;5054388;28;21739;-63
2023/08/29 11:37:55;;;;;;;4.13;1.45;;;;;;;;;;5052080;28;20032;-63
2023/08/29 11:40:22;;;;;;;4.70;1.40;;;;;;;;;;5054824;28;20029;-63
2023/08/29 11:42:48;;;;;;;3.80;1.38;;;;;;;;;;5055101;28;20082;-63
2023/08/29 11:45:17;;;;;;;3.22;1.42;;;;;;;;;;5054225;28;20411;-63
2023/08/29 11:47:43;;;;;;;7.53;2.00;;;;;;;;;;5054556;28;20113;-63
2023/08/29 11:50:11;;;;;;;2.35;1.42;;;;;;;;;;5052050;28;20032;-63
2023/08/29 11:52:37;;;;;;;3.83;1.40;;;;;;;;;;5055124;28;20054;-63
2023/08/29 11:55:04;;;;;;;3.65;1.42;;;;;;;;;;5052995;28;20062;-63
2023/08/29 11:57:30;;;;;;;3.75;1.27;;;;;;;;;;5052889;28;20149;-63
2023/08/29 11:59:59;;;;;;;4.18;1.63;;;;;;;;;;5052483;28;20124;-63
2023/08/29 12:02:26;;;;;;;3.63;1.85;;;;;;;;;;5055887;28;20337;-63
2023/08/29 12:04:56;;;;;;;4.85;2.15;;;;;;;;;;5053453;28;21057;-63
2023/08/29 12:07:22;;;;;;;4.68;2.13;;;;;;;;;;5050192;28;20487;-63
2023/08/29 12:09:49;;;;;;;4.40;2.22;;;;;;;;;;5051942;28;20031;-63
2023/08/29 12:12:30;;;;;;;4.32;2.00;;;;;;;;;;5053984;28;20024;-63
2023/08/29 12:14:56;;;;;;;4.35;2.17;;;;;;;;;;5052403;28;20481;-63
2023/08/29 12:17:23;;;;;;;5.15;2.63;;;;;;;;;;5052122;28;20577;-63
2023/08/29 12:19:49;;;;;;;4.85;2.65;;;;;;;;;;5052939;28;20036;-63
2023/08/29 12:22:19;;;;;;;5.18;2.30;;;;;;;;;;5053323;28;20039;-63
2023/08/29 12:24:54;;;;;;;5.65;1.95;;;;;;;;;;5053310;28;20047;-63
2023/08/29 12:27:21;;;;;;;5.75;2.90;;;;;;;;;;5053235;28;20040;-63
2023/08/29 12:29:47;;;;;;;3.90;2.25;;;;;;;;;;5052721;28;20047;-63
2023/08/29 12:32:16;;;;;;;3.65;2.33;;;;;;;;;;5053210;28;20028;-63
2023/08/29 12:34:43;;;;;;;4.45;2.40;;;;;;;;;;5053432;28;20036;-63
2023/08/29 12:37:09;;;;;;;4.05;2.00;;;;;;;;;;5053597;28;20062;-63
2023/08/29 12:39:35;;;;;;;5.07;2.60;;;;;;;;;;5052818;28;20480;-63
2023/08/29 12:42:02;;;;;;;4.97;2.20;;;;;;;;;;5054555;28;20028;-63
2023/08/29 12:44:28;;;;;;;4.45;2.30;;;;;;;;;;5052461;28;20036;-63
2023/08/29 12:46:54;;;;;;;4.82;2.75;;;;;;;;;;5054935;28;20032;-63
2023/08/29 12:49:20;;;;;;;4.43;2.20;;;;;;;;;;5054288;28;20042;-63
2023/08/29 12:51:46;;;;;;;5.03;2.55;;;;;;;;;;5052730;28;20036;-63
2023/08/29 12:54:12;;;;;;;6.93;2.67;;;;;;;;;;5054582;28;20064;-63
2023/08/29 12:56:41;;;;;;;5.40;2.60;;;;;;;;;;5055630;28;20036;-63
2023/08/29 12:59:07;;;;;;;4.53;2.47;;;;;;;;;;5048656;28;20032;-63
2023/08/29 13:01:33;;;;;;;4.70;2.45;;;;;;;;;;5051319;28;20032;-63
2023/08/29 13:03:59;;;;;;;4.50;2.65;;;;;;;;;;5052979;28;20081;-63
2023/08/29 13:06:27;;;;;;;4.47;2.22;;;;;;;;;;5059447;28;20113;-63
2023/08/29 13:08:53;;;;;;;3.67;1.83;;;;;;;;;;5056869;28;20028;-63
2023/08/29 13:11:19;;;;;;;6.13;2.10;;;;;;;;;;5059519;28;20039;-63
2023/08/29 13:13:45;;;;;;;3.67;1.90;;;;;;;;;;5058560;28;20036;-63
2023/08/29 13:16:30;;;;;;;3.88;1.80;;;;;;;;;;5060216;28;20964;-63
2023/08/29 13:18:56;;;;;;;4.85;2.05;;;;;;;;;;5060686;28;20028;-63
2023/08/29 13:21:23;;;;;;;3.85;1.80;;;;;;;;;;5060111;28;20033;-63
2023/08/29 13:23:49;;;;;;;5.05;2.20;;;;;;;;;;5060990;28;20028;-63
2023/08/29 13:26:15;;;;;;;5.88;2.10;;;;;;;;;;5064738;28;20122;-63
2023/08/29 13:28:41;;;;;;;6.55;1.98;;;;;;;;;;5065730;28;20140;-63
2023/08/29 13:31:07;;;;;;;5.50;1.70;;;;;;;;;;5063477;28;21001;-63
2023/08/29 13:33:34;;;;;;;3.67;1.70;;;;;;;;;;5066032;28;20102;-63
2023/08/29 13:36:01;;;;;;;4.78;1.70;;;;;;;;;;5065224;28;20036;-63
2023/08/29 13:38:27;;;;;;;4.30;1.98;;;;;;;;;;5063686;28;20036;-63
2023/08/29 13:40:53;;;;;;;3.72;1.67;;;;;;;;;;5065297;28;20034;-63
2023/08/29 13:43:19;;;;;;;3.30;1.45;;;;;;;;;;5065795;28;20032;-63
2023/08/29 13:45:46;;;;;;;3.47;1.75;;;;;;;;;;5064978;28;20067;-63
2023/08/29 13:48:12;;;;;;;4.13;1.60;;;;;;;;;;5065051;28;20044;-63
2023/08/29 13:50:39;;;;;;;5.22;1.80;;;;;;;;;;5064697;28;20159;-63
2023/08/29 13:53:06;;;;;;;3.08;1.38;;;;;;;;;;5065494;28;20023;-63
2023/08/29 13:55:32;;;;;;;4.40;1.90;;;;;;;;;;5064943;28;20032;-63
2023/08/29 13:57:58;;;;;;;2.95;1.50;;;;;;;;;;5065710;28;20024;-63
2023/08/29 14:00:24;;;;;;;3.33;1.42;;;;;;;;;;5065352;28;20036;-63
2023/08/29 14:02:52;;;;;;;3.38;1.45;;;;;;;;;;5065686;28;20028;-63
2023/08/29 14:05:18;;;;;;;3.22;1.60;;;;;;;;;;5063301;28;20511;-63
2023/08/29 14:07:44;;;;;;;3.65;1.88;;;;;;;;;;5060936;28;20035;-63
2023/08/29 14:10:10;;;;;;;3.65;1.70;;;;;;;;;;5064613;28;20043;-63
2023/08/29 14:12:36;;;;;;;3.95;1.65;;;;;;;;;;5064555;28;20743;-63
2023/08/29 14:15:02;;;;;;;5.15;2.22;;;;;;;;;;5064892;28;20703;-63
2023/08/29 14:17:28;;;;;;;4.35;1.50;;;;;;;;;;5064469;28;20051;-63
2023/08/29 14:19:56;;;;;;;4.97;1.65;;;;;;;;;;5064313;28;20028;-63
2023/08/29 14:22:23;;;;;;;3.17;1.48;;;;;;;;;;5064233;28;20027;-63
2023/08/29 14:24:49;;;;;;;4.18;1.85;;;;;;;;;;5064405;28;20440;-63
2023/08/29 14:27:15;;;;;;;2.63;1.33;;;;;;;;;;5063989;28;20032;-63
2023/08/29 14:29:41;;;;;;;2.63;1.33;;;;;;;;;;5064760;28;20655;-63
2023/08/29 14:32:07;;;;;;;3.85;1.80;;;;;;;;;;5063403;28;20035;-63
2023/08/29 14:34:33;;;;;;;6.10;1.52;;;;;;;;;;5063496;28;20081;-63
2023/08/29 14:37:00;;;;;;;4.50;1.30;;;;;;;;;;5064123;28;21854;-63
2023/08/29 14:39:26;;;;;;;3.63;1.83;;;;;;;;;;5064482;28;20039;-63
2023/08/29 14:41:52;;;;;;;3.63;1.30;;;;;;;;;;5064678;28;20488;-63